createdAt,value
2018-04-06T00:01:30.381Z,0.00
2018-04-06T00:03:02.203Z,0.00
2018-04-06T00:04:34.064Z,0.00
2018-04-06T00:06:05.829Z,0.00
2018-04-06T00:07:37.645Z,0.00
2018-04-06T00:09:09.460Z,0.00
2018-04-06T00:10:41.277Z,0.00
2018-04-06T00:12:13.093Z,0.00
2018-04-06T00:13:45.428Z,0.00
2018-04-06T00:15:16.829Z,0.00
2018-04-06T00:16:48.540Z,0.00
2018-04-06T00:18:20.358Z,0.00
2018-04-06T00:19:52.172Z,0.00
2018-04-06T00:21:24.088Z,0.00
2018-04-06T00:22:55.804Z,0.00
2018-04-06T00:24:27.620Z,0.00
2018-04-06T00:25:59.443Z,0.00
2018-04-06T00:27:31.250Z,0.00
2018-04-06T00:29:03.068Z,0.00
2018-04-06T00:30:34.882Z,0.00
2018-04-06T00:32:06.697Z,0.00
2018-04-06T00:33:38.612Z,0.00
2018-04-06T00:35:10.330Z,0.00
2018-04-06T00:36:42.142Z,0.00
2018-04-06T00:38:13.960Z,0.00
2018-04-06T00:39:45.773Z,0.00
2018-04-06T00:41:17.587Z,0.00
2018-04-06T00:42:49.403Z,0.00
2018-04-06T00:44:21.220Z,0.00
2018-04-06T00:45:53.032Z,0.00
2018-04-06T00:47:24.847Z,0.00
2018-04-06T00:48:56.662Z,0.00
2018-04-06T00:50:28.477Z,0.00
2018-04-06T00:52:00.494Z,0.00
2018-04-06T00:53:32.107Z,0.00
2018-04-06T00:55:03.924Z,0.00
2018-04-06T00:56:35.738Z,0.00
2018-04-06T00:58:07.553Z,0.00
2018-04-06T00:59:39.371Z,0.00
2018-04-06T01:01:11.182Z,0.00
2018-04-06T01:02:42.999Z,0.00
2018-04-06T01:04:14.814Z,0.00
2018-04-06T01:05:46.629Z,0.00
2018-04-06T01:07:18.443Z,0.00
2018-04-06T01:08:50.258Z,0.00
2018-04-06T01:10:22.173Z,0.00
2018-04-06T01:11:53.887Z,0.00
2018-04-06T01:13:25.704Z,0.00
2018-04-06T01:14:57.517Z,0.00
2018-04-06T01:16:29.333Z,0.00
2018-04-06T01:18:01.487Z,0.00
2018-04-06T01:19:32.963Z,0.00
2018-04-06T01:21:04.778Z,0.00
2018-04-06T01:22:36.693Z,0.00
2018-04-06T01:24:08.409Z,0.00
2018-04-06T01:25:40.224Z,0.00
2018-04-06T01:27:12.038Z,0.00
2018-04-06T01:28:44.206Z,0.00
2018-04-06T01:30:15.669Z,0.00
2018-04-06T01:31:47.485Z,0.00
2018-04-06T01:33:19.300Z,0.00
2018-04-06T01:34:51.266Z,0.00
2018-04-06T01:36:22.931Z,0.00
2018-04-06T01:37:54.747Z,0.00
2018-04-06T01:39:26.562Z,0.00
2018-04-06T01:40:58.378Z,0.00
2018-04-06T01:42:30.193Z,0.00
2018-04-06T01:44:02.009Z,0.00
2018-04-06T01:45:33.824Z,0.00
2018-04-06T01:47:05.739Z,0.00
2018-04-06T01:48:37.455Z,0.00
2018-04-06T01:50:09.270Z,0.00
2018-04-06T01:51:41.086Z,0.00
2018-04-06T01:53:13.607Z,0.00
2018-04-06T01:54:44.717Z,0.00
2018-04-06T01:56:16.531Z,0.00
2018-04-06T01:57:48.346Z,0.00
2018-04-06T01:59:20.413Z,0.00
2018-04-06T02:00:51.978Z,0.00
2018-04-06T02:02:23.792Z,0.00
2018-04-06T02:03:55.609Z,0.00
2018-04-06T02:05:27.524Z,0.00
2018-04-06T02:06:59.240Z,0.00
2018-04-06T02:08:31.053Z,0.00
2018-04-06T02:10:02.869Z,0.00
2018-04-06T02:11:34.685Z,0.00
2018-04-06T02:13:06.499Z,0.00
2018-04-06T02:14:38.316Z,0.00
2018-04-06T02:16:10.129Z,0.00
2018-04-06T02:17:41.944Z,0.00
2018-04-06T02:19:13.784Z,0.00
2018-04-06T02:20:45.576Z,0.00
2018-04-06T02:22:17.390Z,0.00
2018-04-06T02:23:49.408Z,0.00
2018-04-06T02:25:21.023Z,0.00
2018-04-06T02:26:52.837Z,0.00
2018-04-06T02:28:24.654Z,0.00
2018-04-06T02:29:56.718Z,0.00
2018-04-06T02:31:28.290Z,0.00
2018-04-06T02:33:00.103Z,0.00
2018-04-06T02:34:31.917Z,0.00
2018-04-06T02:36:03.729Z,0.00
2018-04-06T02:37:35.544Z,0.00
2018-04-06T02:39:07.361Z,0.00
2018-04-06T02:40:39.176Z,0.00
2018-04-06T02:42:11.242Z,0.00
2018-04-06T02:43:42.876Z,0.00
2018-04-06T02:45:14.626Z,0.00
2018-04-06T02:46:46.439Z,0.00
2018-04-06T02:48:18.464Z,0.00
2018-04-06T02:49:50.073Z,0.00
2018-04-06T02:51:21.887Z,0.00
2018-04-06T02:52:53.703Z,0.00
2018-04-06T02:54:25.652Z,0.00
2018-04-06T02:55:57.335Z,0.00
2018-04-06T02:57:29.151Z,0.00
2018-04-06T02:59:00.965Z,0.00
2018-04-06T03:00:32.885Z,0.00
2018-04-06T03:02:04.597Z,0.00
2018-04-06T03:03:36.414Z,0.00
2018-04-06T03:05:08.228Z,0.00
2018-04-06T03:06:40.194Z,0.00
2018-04-06T03:08:11.860Z,0.00
2018-04-06T03:09:43.676Z,0.00
2018-04-06T03:11:15.492Z,0.00
2018-04-06T03:12:47.308Z,0.00
2018-04-06T03:14:19.123Z,0.00
2018-04-06T03:15:50.939Z,0.00
2018-04-06T03:17:22.758Z,0.00
2018-04-06T03:18:54.670Z,0.00
2018-04-06T03:20:26.386Z,0.00
2018-04-06T03:21:58.202Z,0.00
2018-04-06T03:23:30.018Z,0.00
2018-04-06T03:25:01.834Z,0.00
2018-04-06T03:26:33.648Z,0.00
2018-04-06T03:28:05.464Z,0.00
2018-04-06T03:29:37.280Z,0.00
2018-04-06T03:31:09.097Z,0.00
2018-04-06T03:32:40.911Z,0.00
2018-04-06T03:34:12.727Z,0.00
2018-04-06T03:37:16.460Z,0.00
2018-04-06T03:38:48.246Z,0.00
2018-04-06T03:40:19.991Z,0.00
2018-04-06T03:41:51.806Z,0.00
2018-04-06T03:43:23.624Z,0.00
2018-04-06T03:44:55.437Z,0.00
2018-04-06T03:46:27.253Z,0.00
2018-04-06T03:47:59.069Z,0.00
2018-04-06T03:49:30.884Z,0.00
2018-04-06T03:51:02.699Z,0.00
2018-04-06T03:52:34.515Z,0.00
2018-04-06T03:54:06.331Z,0.00
2018-04-06T03:55:38.348Z,0.00
2018-04-06T03:57:09.968Z,0.00
2018-04-06T03:58:41.781Z,0.00
2018-04-06T04:00:13.597Z,0.00
2018-04-06T04:01:45.864Z,0.00
2018-04-06T04:03:17.537Z,0.00
2018-04-06T04:04:49.041Z,0.00
2018-04-06T04:06:20.857Z,0.00
2018-04-06T04:07:52.823Z,0.00
2018-04-06T04:09:24.487Z,0.00
2018-04-06T04:10:56.302Z,0.00
2018-04-06T04:12:28.118Z,0.00
2018-04-06T04:14:00.033Z,0.00
2018-04-06T04:15:31.749Z,0.00
2018-04-06T04:17:03.565Z,0.00
2018-04-06T04:18:35.379Z,0.00
2018-04-06T04:20:07.194Z,0.00
2018-04-06T04:21:39.009Z,0.00
2018-04-06T04:23:10.824Z,0.00
2018-04-06T04:24:42.639Z,0.00
2018-04-06T04:26:14.554Z,0.00
2018-04-06T04:27:46.472Z,0.00
2018-04-06T04:29:18.084Z,0.00
2018-04-06T04:30:49.898Z,0.00
2018-04-06T04:32:22.064Z,0.00
2018-04-06T04:33:53.528Z,0.00
2018-04-06T04:35:25.343Z,0.00
2018-04-06T04:36:57.158Z,0.00
2018-04-06T04:38:29.123Z,0.00
2018-04-06T04:40:00.819Z,0.00
2018-04-06T04:41:32.601Z,0.00
2018-04-06T04:43:04.418Z,0.00
2018-04-06T04:44:36.231Z,0.00
2018-04-06T04:46:08.047Z,0.00
2018-04-06T04:47:39.861Z,0.00
2018-04-06T04:49:11.678Z,0.00
2018-04-06T04:50:43.592Z,0.00
2018-04-06T04:52:15.307Z,0.00
2018-04-06T04:53:47.122Z,0.00
2018-04-06T04:55:18.938Z,0.00
2018-04-06T04:56:50.852Z,0.00
2018-04-06T04:58:22.568Z,0.00
2018-04-06T04:59:54.382Z,0.00
2018-04-06T05:01:26.198Z,0.00
2018-04-06T05:02:58.014Z,0.00
2018-04-06T05:04:29.829Z,0.00
2018-04-06T05:06:01.645Z,0.00
2018-04-06T05:07:33.460Z,0.00
2018-04-06T05:09:05.375Z,0.00
2018-04-06T05:10:37.090Z,0.00
2018-04-06T05:12:08.930Z,0.00
2018-04-06T05:13:40.722Z,0.00
2018-04-06T05:15:12.537Z,0.00
2018-04-06T05:16:44.353Z,0.00
2018-04-06T05:18:16.172Z,0.00
2018-04-06T05:19:47.985Z,0.00
2018-04-06T05:21:19.799Z,0.00
2018-04-06T05:22:51.615Z,0.00
2018-04-06T05:24:23.451Z,0.00
2018-04-06T05:25:55.247Z,0.00
2018-04-06T05:27:27.262Z,0.00
2018-04-06T05:28:59.188Z,0.00
2018-04-06T05:30:30.694Z,0.00
2018-04-06T05:32:02.510Z,0.00
2018-04-06T05:33:34.576Z,0.00
2018-04-06T05:35:06.144Z,0.00
2018-04-06T05:36:37.958Z,0.00
2018-04-06T05:38:09.777Z,0.00
2018-04-06T05:39:41.589Z,0.00
2018-04-06T05:41:13.405Z,0.00
2018-04-06T05:42:45.221Z,0.00
2018-04-06T05:44:17.037Z,0.00
2018-04-06T05:45:48.953Z,0.00
2018-04-06T05:47:20.671Z,0.00
2018-04-06T05:48:52.485Z,0.00
2018-04-06T05:50:24.300Z,0.00
2018-04-06T05:51:56.116Z,0.00
2018-04-06T05:53:27.931Z,0.00
2018-04-06T05:54:59.746Z,0.00
2018-04-06T05:56:31.565Z,0.00
2018-04-06T05:58:03.478Z,0.00
2018-04-06T05:59:35.194Z,0.00
2018-04-06T06:01:07.010Z,0.00
2018-04-06T06:02:38.829Z,0.00
2018-04-06T06:04:10.992Z,0.00
2018-04-06T06:05:42.458Z,0.00
2018-04-06T06:07:14.273Z,0.00
2018-04-06T06:08:46.089Z,0.00
2018-04-06T06:10:18.055Z,0.00
2018-04-06T06:11:49.719Z,0.00
2018-04-06T06:13:21.535Z,0.00
2018-04-06T06:14:53.352Z,0.00
2018-04-06T06:16:25.166Z,0.00
2018-04-06T06:17:56.981Z,0.00
2018-04-06T06:19:28.797Z,0.00
2018-04-06T06:21:00.614Z,0.00
2018-04-06T06:22:32.530Z,0.00
2018-04-06T06:24:04.246Z,0.00
2018-04-06T06:25:36.061Z,0.00
2018-04-06T06:27:07.951Z,0.00
2018-04-06T06:28:39.794Z,0.00
2018-04-06T06:30:11.508Z,0.00
2018-04-06T06:31:43.323Z,0.00
2018-04-06T06:33:15.142Z,0.00
2018-04-06T06:34:47.056Z,0.00
2018-04-06T06:36:18.771Z,0.00
2018-04-06T06:37:50.586Z,0.00
2018-04-06T06:39:22.402Z,0.00
2018-04-06T06:40:54.318Z,0.00
2018-04-06T06:42:26.033Z,0.00
2018-04-06T06:43:57.849Z,0.00
2018-04-06T06:45:29.664Z,0.00
2018-04-06T06:47:01.480Z,0.00
2018-04-06T06:48:33.295Z,0.00
2018-04-06T06:50:05.112Z,0.00
2018-04-06T06:51:36.927Z,0.00
2018-04-06T06:53:08.742Z,0.00
2018-04-06T06:54:40.562Z,0.00
2018-04-06T06:56:12.374Z,0.00
2018-04-06T06:57:44.190Z,0.00
2018-04-06T06:59:16.206Z,0.00
2018-04-06T07:00:47.821Z,0.00
2018-04-06T07:02:19.637Z,0.00
2018-04-06T07:03:51.452Z,0.00
2018-04-06T07:05:23.519Z,0.00
2018-04-06T07:06:55.083Z,0.00
2018-04-06T07:08:26.926Z,0.00
2018-04-06T07:09:58.714Z,0.00
2018-04-06T07:11:30.530Z,0.00
2018-04-06T07:13:02.345Z,0.00
2018-04-06T07:14:34.161Z,0.00
2018-04-06T07:16:05.977Z,0.00
2018-04-06T07:17:38.043Z,0.00
2018-04-06T07:19:09.608Z,0.00
2018-04-06T07:20:41.424Z,0.00
2018-04-06T07:22:13.240Z,0.00
2018-04-06T07:23:45.056Z,0.00
2018-04-06T07:25:16.872Z,0.00
2018-04-06T07:26:48.693Z,0.00
2018-04-06T07:28:20.503Z,0.00
2018-04-06T07:29:52.424Z,0.00
2018-04-06T07:31:24.133Z,0.00
2018-04-06T07:32:55.952Z,0.00
2018-04-06T07:34:27.765Z,0.00
2018-04-06T07:35:59.932Z,0.00
2018-04-06T07:37:31.400Z,0.00
2018-04-06T07:39:03.213Z,0.00
2018-04-06T07:40:35.029Z,0.00
2018-04-06T07:42:06.846Z,0.00
2018-04-06T07:43:38.662Z,0.00
2018-04-06T07:45:10.479Z,0.00
2018-04-06T07:46:42.295Z,0.00
2018-04-06T07:48:14.107Z,0.00
2018-04-06T07:49:45.923Z,0.00
2018-04-06T07:51:17.738Z,0.00
2018-04-06T07:52:49.554Z,0.00
2018-04-06T07:54:21.470Z,0.00
2018-04-06T07:55:53.185Z,0.00
2018-04-06T07:57:25.008Z,0.00
2018-04-06T07:58:56.822Z,0.00
2018-04-06T08:00:28.733Z,0.00
2018-04-06T08:02:00.447Z,0.00
2018-04-06T08:03:32.263Z,0.00
2018-04-06T08:05:04.077Z,0.00
2018-04-06T08:06:36.143Z,0.00
2018-04-06T08:08:07.708Z,0.00
2018-04-06T08:09:39.523Z,0.00
2018-04-06T08:11:11.339Z,0.00
2018-04-06T08:12:43.254Z,0.00
2018-04-06T08:14:14.968Z,0.00
2018-04-06T08:17:18.598Z,0.00
2018-04-06T08:18:50.413Z,0.00
2018-04-06T08:20:22.227Z,0.00
2018-04-06T08:21:54.043Z,0.00
2018-04-06T08:23:25.857Z,0.00
2018-04-06T08:24:57.676Z,0.00
2018-04-06T08:26:29.552Z,0.00
2018-04-06T08:28:01.301Z,0.00
2018-04-06T08:29:33.117Z,0.00
2018-04-06T08:31:05.132Z,0.00
2018-04-06T08:32:36.745Z,0.00
2018-04-06T08:34:08.560Z,0.00
2018-04-06T08:35:40.375Z,0.00
2018-04-06T08:37:12.440Z,0.00
2018-04-06T08:38:44.005Z,0.00
2018-04-06T08:40:15.820Z,0.00
2018-04-06T08:41:47.635Z,0.00
2018-04-06T08:43:19.600Z,0.00
2018-04-06T08:44:51.266Z,0.00
2018-04-06T08:46:23.080Z,0.00
2018-04-06T08:47:54.895Z,0.00
2018-04-06T08:49:26.809Z,0.00
2018-04-06T08:50:58.525Z,0.00
2018-04-06T08:52:30.339Z,0.00
2018-04-06T08:54:02.154Z,4.00
2018-04-06T08:55:33.973Z,4.00
2018-04-06T08:57:05.784Z,4.00
2018-04-06T08:58:37.603Z,8.00
2018-04-06T09:00:09.416Z,12.00
2018-04-06T09:01:41.334Z,16.00
2018-04-06T09:03:13.045Z,28.00
2018-04-06T09:04:44.896Z,44.00
2018-04-06T09:06:16.877Z,68.00
2018-04-06T09:07:48.894Z,96.00
2018-04-06T09:09:20.304Z,132.00
2018-04-06T09:10:52.119Z,184.00
2018-04-06T09:12:23.938Z,244.00
2018-04-06T09:13:55.757Z,320.00
2018-04-06T09:15:27.563Z,408.00
2018-04-06T09:16:59.898Z,500.00
2018-04-06T09:18:31.193Z,608.00
2018-04-06T09:20:03.011Z,720.00
2018-04-06T09:21:34.827Z,840.00
2018-04-06T09:23:06.636Z,972.00
2018-04-06T09:24:38.450Z,1108.00
2018-04-06T09:26:10.366Z,1248.00
2018-04-06T09:27:42.079Z,1392.00
2018-04-06T09:29:13.894Z,1544.00
2018-04-06T09:30:45.841Z,1696.00
2018-04-06T09:32:17.990Z,1852.00
2018-04-06T09:33:49.336Z,2012.00
2018-04-06T09:35:21.151Z,2176.00
2018-04-06T09:36:52.965Z,2352.00
2018-04-06T09:38:25.031Z,2548.00
2018-04-06T09:39:56.594Z,2740.00
2018-04-06T09:41:28.412Z,2944.00
2018-04-06T09:44:32.339Z,3408.00
2018-04-06T09:46:03.851Z,3916.00
2018-04-06T09:47:35.666Z,3900.00
2018-04-06T09:49:07.481Z,3964.00
2018-04-06T09:50:39.296Z,4196.00
2018-04-06T09:52:11.111Z,4628.00
2018-04-06T09:53:42.925Z,4908.00
2018-04-06T09:55:14.742Z,5216.00
2018-04-06T09:56:46.556Z,5612.00
2018-04-06T09:58:18.373Z,5916.00
2018-04-06T09:59:50.491Z,6348.00
2018-04-06T10:01:22.208Z,6924.00
2018-04-06T10:02:54.137Z,7708.00
2018-04-06T10:05:57.453Z,8380.00
2018-04-06T10:07:29.269Z,8640.00
2018-04-06T10:09:01.087Z,8684.00
2018-04-06T10:10:32.905Z,8636.00
2018-04-06T10:12:04.723Z,8932.00
2018-04-06T10:13:36.664Z,9484.00
2018-04-06T10:15:08.563Z,10172.00
2018-04-06T10:16:40.178Z,10600.00
2018-04-06T10:19:43.818Z,9524.00
2018-04-06T10:22:47.557Z,9620.00
2018-04-06T10:24:19.275Z,10380.00
2018-04-06T10:25:51.096Z,10532.00
2018-04-06T10:27:22.915Z,10220.00
2018-04-06T10:28:54.737Z,10932.00
2018-04-06T10:30:27.311Z,12576.00
2018-04-06T10:31:58.411Z,13568.00
2018-04-06T10:33:30.196Z,13228.00
2018-04-06T10:35:02.638Z,12844.00
2018-04-06T10:36:33.837Z,10328.00
2018-04-06T10:39:37.479Z,8388.00
2018-04-06T10:41:09.704Z,8448.00
2018-04-06T10:42:41.121Z,9100.00
2018-04-06T10:44:12.943Z,9612.00
2018-04-06T10:45:44.764Z,9876.00
2018-04-06T10:47:16.585Z,10836.00
2018-04-06T10:48:48.407Z,11464.00
2018-04-06T10:50:20.225Z,12860.00
2018-04-06T10:51:52.046Z,15616.00
2018-04-06T10:53:23.912Z,16340.00
2018-04-06T10:56:27.506Z,15664.00
2018-04-06T10:57:59.329Z,16448.00
2018-04-06T10:59:31.246Z,17504.00
2018-04-06T11:01:02.966Z,18432.00
2018-04-06T11:02:34.787Z,22976.00
2018-04-06T11:04:06.605Z,23424.00
2018-04-06T11:05:38.529Z,17160.00
2018-04-06T11:07:10.549Z,18208.00
2018-04-06T11:10:14.139Z,20608.00
2018-04-06T11:11:45.856Z,19712.00
2018-04-06T11:13:17.526Z,17448.00
2018-04-06T11:14:49.649Z,19136.00
2018-04-06T11:16:21.193Z,26432.00
2018-04-06T11:17:53.085Z,26432.00
2018-04-06T11:19:24.809Z,25120.00
2018-04-06T11:20:56.626Z,24768.00
2018-04-06T11:22:28.447Z,25312.00
2018-04-06T11:24:00.270Z,26208.00
2018-04-06T11:25:32.088Z,28992.00
2018-04-06T11:27:03.911Z,31392.00
2018-04-06T11:28:36.035Z,39360.00
2018-04-06T11:30:07.755Z,41216.00
2018-04-06T11:31:39.898Z,47616.00
2018-04-06T11:33:11.197Z,43584.00
2018-04-06T11:34:43.019Z,39584.00
2018-04-06T11:36:15.175Z,47040.00
2018-04-06T11:37:46.934Z,50112.00
2018-04-06T11:39:18.488Z,49856.00
2018-04-06T11:40:50.310Z,55392.00
2018-04-06T11:42:22.137Z,60512.00
2018-04-06T11:43:54.161Z,55584.00
2018-04-06T11:45:25.785Z,49312.00
2018-04-06T11:48:29.429Z,54592.00
2018-04-06T11:50:01.256Z,55232.00
2018-04-06T11:51:33.078Z,50624.00
2018-04-06T11:53:04.902Z,41856.00
2018-04-06T11:54:36.832Z,48704.00
2018-04-06T11:56:08.756Z,52384.00
2018-04-06T11:57:40.379Z,55008.00
2018-04-06T11:59:12.233Z,49152.00
2018-04-06T12:02:15.902Z,33600.00
2018-04-06T12:05:19.513Z,26432.00
2018-04-06T12:06:51.628Z,49600.00
2018-04-06T12:08:23.148Z,56192.00
2018-04-06T12:09:54.974Z,24448.00
2018-04-06T12:11:27.312Z,60928.00
2018-04-06T12:12:59.143Z,59392.00
2018-04-06T12:16:02.403Z,26720.00
2018-04-06T12:17:34.396Z,26496.00
2018-04-06T12:19:06.554Z,24608.00
2018-04-06T12:20:37.937Z,24224.00
2018-04-06T12:22:09.766Z,24288.00
2018-04-06T12:23:41.919Z,26176.00
2018-04-06T12:25:13.208Z,31072.00
2018-04-06T12:26:45.031Z,19968.00
2018-04-06T12:28:17.107Z,20096.00
2018-04-06T12:29:48.673Z,23200.00
2018-04-06T12:31:20.500Z,73024.00
2018-04-06T12:32:52.629Z,75296.00
2018-04-06T12:34:24.288Z,74880.00
2018-04-06T12:35:55.960Z,45376.00
2018-04-06T12:37:27.789Z,25600.00
2018-04-06T12:39:00.351Z,22720.00
2018-04-06T12:40:31.428Z,22112.00
2018-04-06T12:42:03.251Z,21952.00
2018-04-06T12:43:35.073Z,25248.00
2018-04-06T12:45:06.904Z,30432.00
2018-04-06T12:46:38.722Z,29440.00
2018-04-06T12:48:10.799Z,27264.00
2018-04-06T12:49:42.585Z,31776.00
2018-04-06T12:51:14.734Z,59584.00
2018-04-06T12:52:47.086Z,29984.00
2018-04-06T12:54:17.825Z,27520.00
2018-04-06T12:55:50.313Z,27648.00
2018-04-06T12:58:53.512Z,30368.00
2018-04-06T13:00:25.161Z,32640.00
2018-04-06T13:01:56.945Z,80256.00
2018-04-06T13:03:28.767Z,81120.00
2018-04-06T13:05:00.882Z,87392.00
2018-04-06T13:06:32.420Z,91840.00
2018-04-06T13:08:04.221Z,88128.00
2018-04-06T13:09:36.044Z,70240.00
2018-04-06T13:11:08.068Z,29184.00
2018-04-06T13:12:39.743Z,25216.00
2018-04-06T13:14:11.845Z,23232.00
2018-04-06T13:17:15.900Z,65408.00
2018-04-06T13:18:47.001Z,81888.00
2018-04-06T13:20:18.818Z,77568.00
2018-04-06T13:21:50.631Z,24096.00
2018-04-06T13:23:22.461Z,23040.00
2018-04-06T13:24:54.279Z,25120.00
2018-04-06T13:26:26.101Z,22944.00
2018-04-06T13:27:57.925Z,78848.00
2018-04-06T13:29:29.847Z,87040.00
2018-04-06T13:32:33.395Z,22112.00
2018-04-06T13:34:05.230Z,22624.00
2018-04-06T13:35:37.040Z,22880.00
2018-04-06T13:37:08.898Z,27744.00
2018-04-06T13:38:40.687Z,23328.00
2018-04-06T13:43:16.180Z,39904.00
2018-04-06T13:46:20.392Z,23552.00
2018-04-06T13:47:51.624Z,18512.00
2018-04-06T13:50:55.475Z,19712.00
2018-04-06T13:52:27.297Z,29280.00
2018-04-06T13:53:59.741Z,40960.00
2018-04-06T13:57:02.825Z,39712.00
2018-04-06T13:58:34.692Z,40768.00
2018-04-06T14:01:38.506Z,33152.00
2018-04-06T14:03:09.999Z,46080.00
2018-04-06T14:06:14.140Z,36960.00
2018-04-06T14:07:45.605Z,26560.00
2018-04-06T14:09:17.974Z,31968.00
2018-04-06T14:10:49.117Z,43776.00
2018-04-06T14:12:20.868Z,26016.00
2018-04-06T14:15:24.458Z,29024.00
2018-04-06T14:16:56.286Z,27360.00
2018-04-06T14:18:28.217Z,23616.00
2018-04-06T14:20:00.090Z,22656.00
2018-04-06T14:24:36.025Z,26208.00
2018-04-06T14:26:07.952Z,41728.00
2018-04-06T14:27:39.057Z,32320.00
2018-04-06T14:29:10.881Z,49248.00
2018-04-06T14:30:42.700Z,28288.00
2018-04-06T14:32:14.524Z,37568.00
2018-04-06T14:33:47.069Z,29408.00
2018-04-06T14:35:18.195Z,33696.00
2018-04-06T14:36:50.203Z,58464.00
2018-04-06T14:39:53.643Z,33440.00
2018-04-06T14:41:25.467Z,32416.00
2018-04-06T14:42:57.442Z,58656.00
2018-04-06T14:44:29.116Z,54816.00
2018-04-06T14:46:00.939Z,67680.00
2018-04-06T14:47:32.767Z,36608.00
2018-04-06T14:49:04.839Z,59488.00
2018-04-06T14:50:36.413Z,52128.00
2018-04-06T14:52:08.238Z,34624.00
2018-04-06T14:55:11.887Z,32320.00
2018-04-06T14:56:44.024Z,31808.00
2018-04-06T14:58:15.843Z,29280.00
2018-04-06T15:01:19.289Z,22080.00
2018-04-06T15:02:51.014Z,22496.00
2018-04-06T15:04:22.840Z,26016.00
2018-04-06T15:05:55.171Z,24512.00
2018-04-06T15:07:26.486Z,33344.00
2018-04-06T15:08:58.512Z,87872.00
2018-04-06T15:12:02.161Z,81184.00
2018-04-06T15:15:06.411Z,81696.00
2018-04-06T15:18:09.261Z,89216.00
2018-04-06T15:19:41.090Z,93216.00
2018-04-06T15:21:14.544Z,91712.00
2018-04-06T15:24:16.569Z,26816.00
2018-04-06T15:27:20.226Z,104192.00
2018-04-06T15:28:52.257Z,76704.00
2018-04-06T15:30:23.879Z,99232.00
2018-04-06T15:31:55.909Z,100640.00
2018-04-06T15:33:27.586Z,103360.00
2018-04-06T15:34:59.361Z,109184.00
2018-04-06T15:36:31.189Z,107616.00
2018-04-06T15:38:03.018Z,107968.00
2018-04-06T15:39:35.001Z,108480.00
2018-04-06T15:41:06.882Z,110496.00
2018-04-06T15:42:38.504Z,111232.00
2018-04-06T15:44:10.335Z,108608.00
2018-04-06T15:47:13.993Z,31712.00
2018-04-06T15:50:17.650Z,33600.00
2018-04-06T15:51:49.480Z,59648.00
2018-04-06T15:53:21.410Z,95104.00
2018-04-06T15:54:53.133Z,103776.00
2018-04-06T15:59:29.298Z,109472.00
2018-04-06T16:01:00.654Z,110624.00
2018-04-06T16:02:32.999Z,113216.00
2018-04-06T16:04:04.095Z,113184.00
2018-04-06T16:05:35.925Z,109152.00
2018-04-06T16:07:07.959Z,39072.00
2018-04-06T16:10:11.410Z,25760.00
2018-04-06T16:11:43.440Z,25344.00
2018-04-06T16:13:15.067Z,25568.00
2018-04-06T16:14:46.894Z,26240.00
2018-04-06T16:16:18.718Z,27872.00
2018-04-06T16:17:50.693Z,30816.00
2018-04-06T16:19:22.369Z,37600.00
2018-04-06T16:20:54.248Z,63008.00
2018-04-06T16:22:26.019Z,42624.00
2018-04-06T16:23:57.869Z,45760.00
2018-04-06T16:25:29.693Z,98848.00
2018-04-06T16:27:02.018Z,97280.00
2018-04-06T16:28:33.318Z,27072.00
2018-04-06T16:30:05.145Z,32160.00
2018-04-06T16:31:36.969Z,26432.00
2018-04-06T16:33:08.793Z,24288.00
2018-04-06T16:34:40.619Z,39520.00
2018-04-06T16:36:13.112Z,35360.00
2018-04-06T16:37:44.267Z,68672.00
2018-04-06T16:39:16.093Z,99392.00
2018-04-06T16:40:47.916Z,100384.00
2018-04-06T16:42:20.045Z,98752.00
2018-04-06T16:46:55.420Z,99744.00
2018-04-06T16:48:27.347Z,98656.00
2018-04-06T16:49:58.870Z,99552.00
2018-04-06T16:53:03.132Z,98240.00
2018-04-06T16:54:34.552Z,97856.00
2018-04-06T16:56:06.180Z,90112.00
2018-04-06T16:57:38.008Z,33760.00
2018-04-06T17:00:41.664Z,34752.00
2018-04-06T17:02:13.796Z,92192.00
2018-04-06T17:03:45.316Z,84832.00
2018-04-06T17:05:17.142Z,88832.00
2018-04-06T17:06:49.948Z,91680.00
2018-04-06T17:08:20.799Z,36704.00
2018-04-06T17:09:52.624Z,33664.00
2018-04-06T17:11:24.970Z,32192.00
2018-04-06T17:12:56.730Z,39392.00
2018-04-06T17:14:28.102Z,65664.00
2018-04-06T17:15:59.931Z,37472.00
2018-04-06T17:17:31.963Z,74240.00
2018-04-06T17:20:35.454Z,29376.00
2018-04-06T17:22:07.232Z,30784.00
2018-04-06T17:23:39.055Z,89728.00
2018-04-06T17:26:42.853Z,84864.00
2018-04-06T17:28:14.527Z,85120.00
2018-04-06T17:31:18.206Z,41600.00
2018-04-06T17:32:50.107Z,50112.00
2018-04-06T17:35:53.654Z,75072.00
2018-04-06T17:37:25.478Z,33952.00
2018-04-06T17:38:57.306Z,74496.00
2018-04-06T17:40:29.129Z,78656.00
2018-04-06T17:43:32.841Z,56032.00
2018-04-06T17:45:04.908Z,76224.00
2018-04-06T17:46:36.428Z,79296.00
2018-04-06T17:48:08.253Z,78592.00
2018-04-06T17:49:40.533Z,68960.00
2018-04-06T17:51:12.015Z,40160.00
2018-04-06T17:52:43.937Z,71776.00
2018-04-06T17:54:16.073Z,68800.00
2018-04-06T17:55:47.381Z,68704.00
2018-04-06T18:00:23.465Z,41696.00
2018-04-06T18:01:54.862Z,68672.00
2018-04-06T18:03:26.509Z,71872.00
2018-04-06T18:04:58.951Z,70432.00
2018-04-06T18:06:30.165Z,68288.00
2018-04-06T18:08:01.984Z,65280.00
2018-04-06T18:11:05.934Z,66688.00
2018-04-06T18:12:37.457Z,64224.00
2018-04-06T18:14:09.285Z,60352.00
2018-04-06T18:17:12.932Z,57056.00
2018-04-06T18:20:16.581Z,58048.00
2018-04-06T18:21:48.925Z,58912.00
2018-04-06T18:23:20.231Z,55936.00
2018-04-06T18:24:52.056Z,55712.00
2018-04-06T18:26:23.881Z,55616.00
2018-04-06T18:27:56.130Z,54592.00
2018-04-06T18:29:27.933Z,52544.00
2018-04-06T18:30:59.371Z,50080.00
2018-04-06T18:32:31.180Z,49184.00
2018-04-06T18:34:03.006Z,48512.00
2018-04-06T18:35:34.831Z,47488.00
2018-04-06T18:37:06.660Z,46048.00
2018-04-06T18:38:38.479Z,45024.00
2018-04-06T18:40:10.304Z,43904.00
2018-04-06T18:41:42.128Z,42912.00
2018-04-06T18:43:13.955Z,42368.00
2018-04-06T18:44:45.807Z,41536.00
2018-04-06T18:46:17.602Z,40544.00
2018-04-06T18:47:50.651Z,40096.00
2018-04-06T18:49:21.757Z,39872.00
2018-04-06T18:50:53.074Z,38880.00
2018-04-06T18:52:24.898Z,38656.00
2018-04-06T18:53:57.027Z,17368.00
2018-04-06T18:57:00.374Z,35488.00
2018-04-06T18:58:32.199Z,34208.00
2018-04-06T19:00:04.529Z,35232.00
2018-04-06T19:01:35.849Z,35936.00
2018-04-06T19:03:08.170Z,35552.00
2018-04-06T19:04:40.035Z,29888.00
2018-04-06T19:06:11.613Z,37472.00
2018-04-06T19:07:43.652Z,33440.00
2018-04-06T19:09:16.225Z,28032.00
2018-04-06T19:12:18.603Z,29024.00
2018-04-06T19:13:50.729Z,28288.00
2018-04-06T19:15:22.248Z,13348.00
2018-04-06T19:18:25.993Z,26688.00
2018-04-06T19:19:58.457Z,26528.00
2018-04-06T19:21:30.158Z,26304.00
2018-04-06T19:23:01.567Z,26592.00
2018-04-06T19:26:05.240Z,23136.00
2018-04-06T19:29:08.653Z,16360.00
2018-04-06T19:30:41.397Z,12084.00
2018-04-06T19:32:12.447Z,16948.00
2018-04-06T19:33:44.119Z,19936.00
2018-04-06T19:35:16.245Z,21088.00
2018-04-06T19:36:47.765Z,21344.00
2018-04-06T19:38:20.111Z,22496.00
2018-04-06T19:39:51.407Z,23296.00
2018-04-06T19:41:23.231Z,23616.00
2018-04-06T19:42:55.087Z,21856.00
2018-04-06T19:44:27.227Z,19392.00
2018-04-06T19:45:58.944Z,17120.00
2018-04-06T19:47:30.518Z,16800.00
2018-04-06T19:49:02.341Z,17760.00
2018-04-06T19:50:34.163Z,18624.00
2018-04-06T19:52:05.988Z,19296.00
2018-04-06T19:55:10.153Z,16832.00
2018-04-06T19:56:41.451Z,15468.00
2018-04-06T19:58:13.272Z,14248.00
2018-04-06T19:59:45.296Z,12656.00
2018-04-06T20:01:16.916Z,11124.00
2018-04-06T20:02:48.837Z,7936.00
2018-04-06T20:04:20.560Z,7400.00
2018-04-06T20:05:52.730Z,7340.00
2018-04-06T20:07:24.202Z,7472.00
2018-04-06T20:08:56.077Z,7876.00
2018-04-06T20:12:00.182Z,6352.00
2018-04-06T20:13:31.482Z,6576.00
2018-04-06T20:15:03.303Z,8096.00
2018-04-06T20:16:35.125Z,7732.00
2018-04-06T20:18:07.246Z,7532.00
2018-04-06T20:19:38.763Z,7684.00
2018-04-06T20:21:10.681Z,6936.00
2018-04-06T20:22:42.400Z,6352.00
2018-04-06T20:24:14.218Z,5800.00
2018-04-06T20:25:47.165Z,5476.00
2018-04-06T20:27:18.081Z,5280.00
2018-04-06T20:28:49.684Z,5012.00
2018-04-06T20:30:21.506Z,4752.00
2018-04-06T20:31:53.315Z,4468.00
2018-04-06T20:33:25.154Z,3768.00
2018-04-06T20:34:56.953Z,3980.00
2018-04-06T20:36:28.771Z,3916.00
2018-04-06T20:38:00.600Z,3672.00